createdAt,value
2018-12-29T00:01:14.104Z,11.80
2018-12-29T00:06:16.701Z,11.12
2018-12-29T00:08:48.927Z,11.07
2018-12-29T00:11:20.935Z,10.28
2018-12-29T00:13:52.933Z,9.85
2018-12-29T00:16:25.092Z,10.93
2018-12-29T00:18:57.116Z,9.10
2018-12-29T00:23:59.941Z,10.18
2018-12-29T00:26:31.944Z,10.00
2018-12-29T00:29:03.943Z,11.88
2018-12-29T00:31:36.239Z,10.32
2018-12-29T00:36:39.110Z,11.43
2018-12-29T00:39:11.280Z,11.93
2018-12-29T00:44:19.649Z,10.97
2018-12-29T00:46:51.921Z,10.72
2018-12-29T00:49:23.945Z,11.30
2018-12-29T00:51:55.935Z,10.53
2018-12-29T00:54:28.113Z,10.17
2018-12-29T00:57:00.304Z,9.53
2018-12-29T01:02:03.488Z,9.23
2018-12-29T01:04:36.939Z,7.50
2018-12-29T01:07:09.277Z,7.62
2018-12-29T01:09:41.272Z,8.28
2018-12-29T01:14:45.460Z,6.20
2018-12-29T01:17:17.644Z,7.90
2018-12-29T01:19:49.699Z,7.13
2018-12-29T01:22:21.729Z,6.70
2018-12-29T01:24:53.921Z,6.80
2018-12-29T01:27:25.946Z,7.10
2018-12-29T01:29:58.667Z,5.93
2018-12-29T01:32:31.328Z,7.53
2018-12-29T01:35:03.308Z,6.90
2018-12-29T01:37:35.336Z,6.90
2018-12-29T01:40:08.071Z,6.50
2018-12-29T01:42:40.950Z,6.93
2018-12-29T01:45:17.329Z,6.80
2018-12-29T01:47:47.256Z,6.33
2018-12-29T01:52:50.088Z,6.33
2018-12-29T01:55:22.102Z,6.00
2018-12-29T01:57:54.281Z,6.25
2018-12-29T02:02:56.950Z,6.10
2018-12-29T02:05:29.476Z,6.90
2018-12-29T02:08:01.660Z,6.13
2018-12-29T02:10:33.751Z,6.67
2018-12-29T02:13:05.751Z,6.80
2018-12-29T02:15:37.798Z,6.27
2018-12-29T02:19:19.747Z,6.42
2018-12-29T02:21:51.764Z,7.30
2018-12-29T02:24:23.952Z,7.67
2018-12-29T02:26:57.682Z,7.35
2018-12-29T02:29:29.794Z,7.63
2018-12-29T02:32:01.912Z,7.97
2018-12-29T02:34:33.952Z,6.97
2018-12-29T02:37:06.127Z,6.90
2018-12-29T02:39:39.755Z,7.47
2018-12-29T02:42:11.943Z,7.57
2018-12-29T02:44:44.074Z,7.33
2018-12-29T02:47:16.140Z,6.78
2018-12-29T02:52:18.948Z,7.70
2018-12-29T02:54:51.113Z,8.95
2018-12-29T02:59:55.330Z,9.68
2018-12-29T03:02:27.637Z,9.88
2018-12-29T03:04:59.873Z,10.05
2018-12-29T03:07:32.127Z,9.67
2018-12-29T03:12:34.891Z,8.93
2018-12-29T03:15:07.359Z,10.68
2018-12-29T03:20:09.959Z,10.93
2018-12-29T03:22:41.959Z,10.75
2018-12-29T03:25:13.969Z,10.50
2018-12-29T03:27:46.104Z,11.00
2018-12-29T03:30:19.740Z,10.43
2018-12-29T03:32:51.761Z,9.40
2018-12-29T03:35:23.963Z,10.53
2018-12-29T03:37:55.968Z,10.07
2018-12-29T03:40:28.667Z,10.80
2018-12-29T03:43:00.685Z,9.50
2018-12-29T03:45:32.733Z,10.37
2018-12-29T03:48:04.742Z,8.50
2018-12-29T03:50:36.950Z,9.50
2018-12-29T03:53:09.337Z,10.03
2018-12-29T03:55:41.282Z,10.40
2018-12-29T04:00:44.288Z,9.03
2018-12-29T04:05:47.682Z,10.23
2018-12-29T04:08:19.769Z,8.70
2018-12-29T04:10:51.895Z,8.80
2018-12-29T04:13:23.990Z,9.57
2018-12-29T04:15:58.201Z,8.13
2018-12-29T04:18:29.781Z,7.15
2018-12-29T04:21:01.893Z,7.33
2018-12-29T04:23:33.949Z,6.57
2018-12-29T04:26:05.954Z,6.97
2018-12-29T04:28:37.945Z,6.90
2018-12-29T04:31:09.953Z,5.90
2018-12-29T04:33:41.951Z,6.00
2018-12-29T04:36:14.116Z,5.30
2018-12-29T04:41:16.947Z,5.33
2018-12-29T04:43:48.959Z,4.87
2018-12-29T04:46:20.955Z,4.60
2018-12-29T04:48:53.092Z,4.90
2018-12-29T04:51:25.292Z,4.73
2018-12-29T04:56:27.886Z,4.33
2018-12-29T04:58:59.952Z,4.07
2018-12-29T05:01:31.937Z,3.87
2018-12-29T05:04:03.962Z,4.47
2018-12-29T05:06:35.962Z,4.90
2018-12-29T05:09:09.798Z,4.67
2018-12-29T05:11:41.787Z,4.13
2018-12-29T05:14:13.957Z,4.60
2018-12-29T05:16:45.957Z,4.43
2018-12-29T05:19:17.935Z,4.93
2018-12-29T05:21:50.074Z,4.58
2018-12-29T05:24:22.119Z,4.30
2018-12-29T05:29:24.775Z,4.70
2018-12-29T05:31:56.934Z,5.00
2018-12-29T05:34:29.062Z,4.80
2018-12-29T05:37:01.088Z,4.83
2018-12-29T05:39:33.287Z,5.40
2018-12-29T05:44:35.954Z,5.28
2018-12-29T05:47:08.202Z,5.73
2018-12-29T05:49:40.292Z,5.90
2018-12-29T05:54:43.292Z,5.77
2018-12-29T05:59:45.950Z,6.60
2018-12-29T06:02:18.284Z,6.55
2018-12-29T06:07:21.288Z,7.10
2018-12-29T06:12:23.951Z,6.57
2018-12-29T06:14:55.957Z,5.73
2018-12-29T06:17:27.956Z,6.27
2018-12-29T06:19:59.941Z,6.37
2018-12-29T06:22:31.961Z,6.25
2018-12-29T06:25:03.955Z,6.10
2018-12-29T06:27:35.959Z,5.77
2018-12-29T06:30:08.150Z,5.93
2018-12-29T06:32:40.117Z,6.43
2018-12-29T06:37:42.721Z,6.27
2018-12-29T06:40:14.756Z,6.33
2018-12-29T06:42:46.851Z,6.27
2018-12-29T06:45:18.871Z,6.62
2018-12-29T06:47:50.948Z,6.33
2018-12-29T06:50:22.955Z,6.20
2018-12-29T06:52:55.118Z,7.20
2018-12-29T06:57:57.890Z,8.00
2018-12-29T07:00:29.954Z,7.70
2018-12-29T07:03:01.954Z,7.00
2018-12-29T07:05:33.952Z,8.13
2018-12-29T07:08:05.939Z,8.20
2018-12-29T07:10:37.950Z,8.27
2018-12-29T07:13:09.950Z,7.37
2018-12-29T07:15:41.955Z,7.80
2018-12-29T07:18:13.942Z,7.83
2018-12-29T07:20:45.955Z,8.60
2018-12-29T07:23:18.069Z,8.60
2018-12-29T07:25:50.114Z,8.20
2018-12-29T07:28:22.143Z,8.30
2018-12-29T07:33:25.153Z,9.17
2018-12-29T07:38:27.755Z,10.87
2018-12-29T07:40:59.947Z,9.50
2018-12-29T07:43:31.955Z,9.50
2018-12-29T07:46:03.955Z,9.40
2018-12-29T07:48:35.964Z,8.97
2018-12-29T07:51:08.090Z,8.28
2018-12-29T07:53:40.091Z,8.03
2018-12-29T07:56:12.297Z,7.60
2018-12-29T08:01:14.950Z,7.75
2018-12-29T08:03:46.960Z,7.92
2018-12-29T08:06:18.963Z,7.45
2018-12-29T08:08:50.948Z,7.17
2018-12-29T08:11:23.106Z,8.03
2018-12-29T08:16:25.962Z,6.95
2018-12-29T08:18:58.084Z,7.67
2018-12-29T08:21:30.275Z,7.40
2018-12-29T08:26:32.949Z,7.80
2018-12-29T08:29:04.953Z,7.40
2018-12-29T08:31:36.948Z,7.33
2018-12-29T08:34:09.106Z,5.47
2018-12-29T08:36:41.276Z,6.90
2018-12-29T08:41:43.943Z,6.47
2018-12-29T08:44:16.116Z,6.17
2018-12-29T08:46:48.117Z,6.20
2018-12-29T08:49:20.266Z,6.43
2018-12-29T08:54:23.070Z,7.13
2018-12-29T08:56:55.118Z,6.70
2018-12-29T09:01:57.837Z,7.20
2018-12-29T09:04:29.876Z,6.40
2018-12-29T09:07:01.902Z,6.50
2018-12-29T09:09:33.982Z,6.47
2018-12-29T09:12:06.124Z,5.97
2018-12-29T09:14:38.279Z,6.70
2018-12-29T09:19:42.623Z,6.67
2018-12-29T09:22:14.713Z,6.67
2018-12-29T09:24:46.788Z,5.77
2018-12-29T09:27:18.859Z,6.43
2018-12-29T09:29:50.948Z,6.00
2018-12-29T09:32:23.066Z,6.70
2018-12-29T09:34:55.091Z,7.25
2018-12-29T09:37:27.269Z,6.57
2018-12-29T09:42:29.927Z,5.83
2018-12-29T09:45:02.023Z,5.57
2018-12-29T09:47:34.110Z,5.43
2018-12-29T09:50:06.671Z,6.70
2018-12-29T09:52:39.315Z,6.50
2018-12-29T09:55:11.296Z,6.03
2018-12-29T10:00:13.954Z,6.80
2018-12-29T10:02:46.227Z,6.50
2018-12-29T10:05:18.370Z,7.60
2018-12-29T10:07:50.664Z,6.83
2018-12-29T10:10:22.946Z,6.67
2018-12-29T10:12:54.953Z,7.33
2018-12-29T10:15:27.266Z,6.80
2018-12-29T10:20:29.964Z,7.27
2018-12-29T10:23:02.167Z,7.10
2018-12-29T10:25:34.279Z,7.12
2018-12-29T10:30:37.011Z,6.60
2018-12-29T10:33:09.120Z,6.90
2018-12-29T10:38:11.962Z,7.00
2018-12-29T10:40:44.113Z,6.20
2018-12-29T10:45:46.954Z,6.13
2018-12-29T10:48:19.090Z,6.73
2018-12-29T10:50:51.137Z,7.17
2018-12-29T10:53:23.281Z,6.87
2018-12-29T10:58:26.277Z,6.47
2018-12-29T11:03:28.924Z,6.07
2018-12-29T11:06:00.973Z,6.57
2018-12-29T11:08:33.274Z,5.80
2018-12-29T11:13:36.273Z,5.55
2018-12-29T11:18:39.784Z,5.97
2018-12-29T11:21:11.830Z,5.90
2018-12-29T11:23:43.916Z,5.00
2018-12-29T11:26:15.935Z,5.57
2018-12-29T11:28:47.950Z,5.93
2018-12-29T11:31:20.134Z,5.67
2018-12-29T11:33:52.281Z,5.27
2018-12-29T11:38:54.942Z,6.00
2018-12-29T11:41:26.941Z,5.60
2018-12-29T11:43:58.933Z,6.47
2018-12-29T11:46:30.937Z,5.20
2018-12-29T11:49:02.933Z,4.87
2018-12-29T11:51:35.193Z,7.20
2018-12-29T11:54:07.261Z,6.30
2018-12-29T11:59:10.595Z,5.23
2018-12-29T12:01:42.774Z,5.67
2018-12-29T12:04:14.935Z,5.17
2018-12-29T12:06:46.936Z,4.30
2018-12-29T12:11:50.053Z,4.47
2018-12-29T12:14:22.162Z,4.67
2018-12-29T12:16:54.109Z,7.40
2018-12-29T12:19:26.500Z,41.73
2018-12-29T12:21:58.674Z,4.93
2018-12-29T12:24:31.012Z,4.60
2018-12-29T12:27:03.114Z,4.33
2018-12-29T12:29:35.090Z,4.87
2018-12-29T12:34:37.874Z,4.60
2018-12-29T12:37:09.915Z,5.22
2018-12-29T12:39:44.940Z,5.00
2018-12-29T12:42:17.100Z,4.83
2018-12-29T12:47:19.942Z,4.70
2018-12-29T12:49:52.291Z,5.27
2018-12-29T12:54:55.674Z,5.63
2018-12-29T12:57:27.865Z,4.63
2018-12-29T13:02:31.119Z,18.25
2018-12-29T13:07:34.094Z,5.83
2018-12-29T13:10:06.754Z,7.50
2018-12-29T13:12:39.087Z,4.80
2018-12-29T13:17:41.769Z,4.13
2018-12-29T13:20:13.956Z,6.20
2018-12-29T13:25:17.268Z,4.77
2018-12-29T13:27:49.076Z,5.40
2018-12-29T13:30:21.225Z,4.90
2018-12-29T13:32:53.685Z,5.53
2018-12-29T13:35:25.870Z,5.37
2018-12-29T13:37:57.943Z,4.97
2018-12-29T13:40:30.119Z,5.10
2018-12-29T13:43:02.305Z,5.10
2018-12-29T13:45:34.273Z,5.20
2018-12-29T13:48:06.303Z,5.07
2018-12-29T13:50:39.376Z,5.20
2018-12-29T13:53:11.765Z,5.10
2018-12-29T13:55:43.939Z,5.13
2018-12-29T13:58:16.052Z,4.37
2018-12-29T14:00:48.264Z,4.97
2018-12-29T14:05:50.916Z,4.33
2018-12-29T14:08:23.265Z,4.87
2018-12-29T14:10:55.539Z,5.10
2018-12-29T14:13:27.665Z,4.93
2018-12-29T14:15:59.937Z,4.83
2018-12-29T14:18:32.175Z,4.62
2018-12-29T14:23:35.277Z,5.10
2018-12-29T14:28:37.945Z,4.80
2018-12-29T14:31:10.241Z,5.13
2018-12-29T14:36:12.940Z,5.65
2018-12-29T14:38:45.100Z,4.83
2018-12-29T14:41:17.289Z,4.30
2018-12-29T14:46:20.266Z,5.40
2018-12-29T14:51:22.929Z,5.60
2018-12-29T14:53:54.938Z,4.97
2018-12-29T14:56:27.272Z,5.77
2018-12-29T14:59:00.096Z,5.75
2018-12-29T15:04:03.098Z,5.77
2018-12-29T15:09:07.973Z,5.47
2018-12-29T15:11:40.260Z,6.10
2018-12-29T15:14:12.333Z,6.10
2018-12-29T15:16:44.679Z,6.40
2018-12-29T15:19:16.940Z,5.33
2018-12-29T15:21:49.089Z,6.03
2018-12-29T15:26:51.916Z,5.87
2018-12-29T15:31:54.945Z,5.22
2018-12-29T15:34:27.264Z,6.15
2018-12-29T15:37:01.012Z,5.63
2018-12-29T15:39:34.153Z,5.20
2018-12-29T15:47:09.281Z,5.20
2018-12-29T15:49:44.102Z,5.83
2018-12-29T15:52:16.285Z,5.33
2018-12-29T15:54:48.775Z,5.40
2018-12-29T15:57:21.138Z,5.73
2018-12-29T15:59:54.164Z,5.37
2018-12-29T16:02:26.279Z,6.00
2018-12-29T16:04:58.638Z,5.85
2018-12-29T16:07:30.894Z,4.83
2018-12-29T16:10:03.099Z,6.43
2018-12-29T16:15:11.071Z,6.17
2018-12-29T16:17:43.285Z,5.93
2018-12-29T16:20:15.310Z,6.30
2018-12-29T16:22:47.791Z,6.17
2018-12-29T16:25:19.955Z,5.85
2018-12-29T16:27:52.181Z,6.22
2018-12-29T16:35:26.276Z,5.60
2018-12-29T16:37:58.862Z,4.90
2018-12-29T16:40:30.946Z,5.92
2018-12-29T16:43:03.140Z,6.43
2018-12-29T16:45:35.267Z,5.35
2018-12-29T16:48:07.682Z,5.60
2018-12-29T16:50:39.930Z,5.83
2018-12-29T16:53:12.129Z,5.60
2018-12-29T16:58:15.326Z,5.50
2018-12-29T17:00:47.307Z,5.23
2018-12-29T17:03:19.653Z,4.50
2018-12-29T17:05:51.749Z,5.03
2018-12-29T17:08:23.945Z,5.80
2018-12-29T17:13:27.282Z,5.03
2018-12-29T17:18:30.136Z,5.25
2018-12-29T17:21:02.701Z,5.75
2018-12-29T17:23:34.942Z,4.03
2018-12-29T17:26:07.116Z,4.53
2018-12-29T17:28:39.691Z,4.90
2018-12-29T17:31:11.951Z,4.67
2018-12-29T17:33:44.281Z,5.57
2018-12-29T17:38:47.282Z,4.97
2018-12-29T17:41:19.313Z,5.30
2018-12-29T17:43:52.011Z,5.43
2018-12-29T17:46:24.123Z,5.03
2018-12-29T17:48:56.283Z,4.80
2018-12-29T17:51:28.314Z,5.87
2018-12-29T17:54:00.319Z,5.70
2018-12-29T17:56:32.861Z,5.17
2018-12-29T17:59:04.947Z,5.50
2018-12-29T18:01:37.107Z,5.70
2018-12-29T18:06:39.942Z,4.33
2018-12-29T18:09:12.134Z,5.23
2018-12-29T18:14:14.901Z,5.30
2018-12-29T18:16:47.882Z,4.83
2018-12-29T18:21:50.896Z,4.60
2018-12-29T18:24:23.126Z,5.83
2018-12-29T18:29:25.941Z,5.60
2018-12-29T18:31:58.420Z,4.47
2018-12-29T18:34:30.727Z,5.43
2018-12-29T18:37:03.081Z,5.30
2018-12-29T18:42:07.628Z,6.03
2018-12-29T18:44:40.130Z,5.33
2018-12-29T18:47:12.322Z,5.17
2018-12-29T18:49:44.320Z,5.23
2018-12-29T18:52:16.356Z,5.10
2018-12-29T18:54:48.322Z,4.33
2018-12-29T18:57:20.300Z,5.57
2018-12-29T18:59:52.328Z,5.93
2018-12-29T19:02:24.655Z,6.43
2018-12-29T19:04:56.888Z,5.20
2018-12-29T19:09:59.931Z,5.40
2018-12-29T19:12:32.266Z,3.97
2018-12-29T19:17:35.144Z,4.97
2018-12-29T19:20:08.332Z,6.60
2018-12-29T19:22:40.310Z,4.63
2018-12-29T19:25:12.307Z,6.10
2018-12-29T19:27:44.316Z,5.70
2018-12-29T19:30:16.624Z,5.10
2018-12-29T19:32:49.227Z,3.70
2018-12-29T19:37:51.940Z,4.73
2018-12-29T19:40:23.945Z,5.03
2018-12-29T19:42:56.276Z,4.20
2018-12-29T19:45:28.309Z,4.80
2018-12-29T19:48:00.938Z,4.17
2018-12-29T19:53:03.944Z,4.40
2018-12-29T19:55:36.128Z,4.00
2018-12-29T20:00:39.287Z,3.75
2018-12-29T20:03:12.346Z,4.17
2018-12-29T20:05:44.784Z,2.87
2018-12-29T20:08:16.938Z,3.60
2018-12-29T20:10:48.986Z,4.77
2018-12-29T20:13:20.939Z,3.53
2018-12-29T20:15:53.253Z,3.72
2018-12-29T20:23:26.940Z,3.17
2018-12-29T20:25:59.271Z,3.30
2018-12-29T20:31:02.319Z,3.17
2018-12-29T20:33:34.283Z,2.83
2018-12-29T20:36:06.656Z,2.83
2018-12-29T20:38:38.890Z,3.25
2018-12-29T20:41:10.931Z,2.85
2018-12-29T20:43:43.267Z,2.60
2018-12-29T20:46:15.265Z,2.63
2018-12-29T20:48:47.299Z,3.27
2018-12-29T20:51:19.352Z,2.57
2018-12-29T20:53:51.935Z,2.00
2018-12-29T20:56:24.266Z,2.23
2018-12-29T20:58:56.312Z,2.40
2018-12-29T21:01:28.644Z,1.90
2018-12-29T21:04:00.943Z,2.17
2018-12-29T21:06:33.274Z,2.03
2018-12-29T21:09:08.647Z,1.90
2018-12-29T21:11:40.931Z,1.95
2018-12-29T21:14:13.243Z,1.90
2018-12-29T21:19:16.274Z,1.40
2018-12-29T21:24:19.284Z,1.57
2018-12-29T21:26:51.723Z,1.67
2018-12-29T21:29:23.954Z,1.27
2018-12-29T21:31:56.296Z,1.40
2018-12-29T21:34:28.345Z,1.40
2018-12-29T21:37:00.626Z,1.40
2018-12-29T21:39:32.943Z,1.30
2018-12-29T21:42:05.113Z,1.20
2018-12-29T21:44:37.278Z,1.20
2018-12-29T21:47:09.276Z,1.20
2018-12-29T21:49:41.308Z,1.10
2018-12-29T21:52:13.297Z,0.87
2018-12-29T21:54:45.335Z,1.30
2018-12-29T22:04:21.675Z,1.30
2018-12-29T22:06:54.249Z,1.17
2018-12-29T22:11:57.120Z,1.37
2018-12-29T22:17:00.100Z,1.00
2018-12-29T22:22:03.081Z,1.20
2018-12-29T22:32:07.941Z,1.17
2018-12-29T22:34:40.096Z,1.07
2018-12-29T22:37:12.268Z,1.20
2018-12-29T22:42:15.271Z,1.10
2018-12-29T22:44:47.621Z,1.20
2018-12-29T22:47:19.934Z,1.10
2018-12-29T22:49:52.267Z,1.00
2018-12-29T22:52:24.642Z,1.20
2018-12-29T22:54:56.695Z,1.30
2018-12-29T22:57:29.261Z,1.00
2018-12-29T23:00:01.734Z,1.30
2018-12-29T23:02:34.269Z,3.92
2018-12-29T23:05:06.662Z,1.40
2018-12-29T23:07:38.935Z,1.40
2018-12-29T23:10:11.099Z,0.90
2018-12-29T23:12:43.270Z,1.60
2018-12-29T23:15:15.668Z,1.50
2018-12-29T23:17:48.140Z,1.43
2018-12-29T23:22:50.934Z,1.50
2018-12-29T23:25:23.255Z,1.23
2018-12-29T23:30:26.267Z,1.50
2018-12-29T23:32:58.419Z,1.53
2018-12-29T23:35:30.768Z,1.50
2018-12-29T23:40:34.103Z,1.57
2018-12-29T23:43:06.261Z,1.45
2018-12-29T23:45:38.779Z,1.70
2018-12-29T23:48:10.935Z,2.00
2018-12-29T23:50:43.207Z,2.20
2018-12-29T23:53:15.274Z,2.10
2018-12-29T23:55:47.690Z,1.80
2018-12-29T23:58:20.091Z,2.00
